sensor_id;sensor_type;location;lat;lon;timestamp;P1;durP1;ratioP1;P2;durP2;ratioP2
10711;SDS011;5407;51.234;6.804;2022-10-23T00:00:24;3.70;;;2.17;;
10711;SDS011;5407;51.234;6.804;2022-10-23T00:02:51;4.88;;;2.38;;
10711;SDS011;5407;51.234;6.804;2022-10-23T00:05:18;4.28;;;2.65;;
10711;SDS011;5407;51.234;6.804;2022-10-23T00:07:49;6.05;;;2.60;;
10711;SDS011;5407;51.234;6.804;2022-10-23T00:10:17;6.65;;;2.28;;
10711;SDS011;5407;51.234;6.804;2022-10-23T00:12:45;5.88;;;2.53;;
10711;SDS011;5407;51.234;6.804;2022-10-23T00:15:14;6.13;;;2.47;;
10711;SDS011;5407;51.234;6.804;2022-10-23T00:17:43;7.65;;;2.30;;
10711;SDS011;5407;51.234;6.804;2022-10-23T00:20:11;5.90;;;2.45;;
10711;SDS011;5407;51.234;6.804;2022-10-23T00:22:38;4.80;;;2.20;;
10711;SDS011;5407;51.234;6.804;2022-10-23T00:25:07;4.60;;;2.50;;
10711;SDS011;5407;51.234;6.804;2022-10-23T00:27:35;3.22;;;2.22;;
10711;SDS011;5407;51.234;6.804;2022-10-23T00:30:03;7.38;;;2.50;;
10711;SDS011;5407;51.234;6.804;2022-10-23T00:32:31;4.95;;;2.50;;
10711;SDS011;5407;51.234;6.804;2022-10-23T00:34:58;5.07;;;2.42;;
10711;SDS011;5407;51.234;6.804;2022-10-23T00:37:25;4.28;;;1.98;;
10711;SDS011;5407;51.234;6.804;2022-10-23T00:39:52;4.88;;;2.22;;
10711;SDS011;5407;51.234;6.804;2022-10-23T00:42:22;4.40;;;2.33;;
10711;SDS011;5407;51.234;6.804;2022-10-23T00:45:07;7.68;;;2.60;;
10711;SDS011;5407;51.234;6.804;2022-10-23T00:47:43;4.78;;;2.08;;
10711;SDS011;5407;51.234;6.804;2022-10-23T00:50:11;5.03;;;2.33;;
10711;SDS011;5407;51.234;6.804;2022-10-23T00:52:39;5.80;;;2.03;;
10711;SDS011;5407;51.234;6.804;2022-10-23T00:55:10;3.97;;;2.20;;
10711;SDS011;5407;51.234;6.804;2022-10-23T00:57:40;3.92;;;2.30;;
10711;SDS011;5407;51.234;6.804;2022-10-23T01:00:11;3.28;;;2.10;;
10711;SDS011;5407;51.234;6.804;2022-10-23T01:02:40;2.38;;;2.00;;
10711;SDS011;5407;51.234;6.804;2022-10-23T01:05:07;4.82;;;2.33;;
10711;SDS011;5407;51.234;6.804;2022-10-23T01:07:35;3.08;;;2.30;;
10711;SDS011;5407;51.234;6.804;2022-10-23T01:10:09;4.03;;;2.15;;
10711;SDS011;5407;51.234;6.804;2022-10-23T01:12:45;3.88;;;2.05;;
10711;SDS011;5407;51.234;6.804;2022-10-23T01:15:21;5.50;;;2.10;;
10711;SDS011;5407;51.234;6.804;2022-10-23T01:17:54;4.20;;;2.00;;
10711;SDS011;5407;51.234;6.804;2022-10-23T01:20:28;4.40;;;1.92;;
10711;SDS011;5407;51.234;6.804;2022-10-23T01:26:10;3.22;;;1.77;;
10711;SDS011;5407;51.234;6.804;2022-10-23T01:28:50;4.13;;;2.33;;
10711;SDS011;5407;51.234;6.804;2022-10-23T01:31:24;5.82;;;2.10;;
10711;SDS011;5407;51.234;6.804;2022-10-23T01:33:59;5.85;;;2.38;;
10711;SDS011;5407;51.234;6.804;2022-10-23T01:36:33;2.83;;;1.97;;
10711;SDS011;5407;51.234;6.804;2022-10-23T01:39:05;3.88;;;2.00;;
10711;SDS011;5407;51.234;6.804;2022-10-23T01:41:35;4.43;;;2.20;;
10711;SDS011;5407;51.234;6.804;2022-10-23T01:44:10;3.92;;;2.10;;
10711;SDS011;5407;51.234;6.804;2022-10-23T01:46:40;5.07;;;2.25;;
10711;SDS011;5407;51.234;6.804;2022-10-23T01:49:09;4.38;;;1.73;;
10711;SDS011;5407;51.234;6.804;2022-10-23T01:51:38;4.75;;;2.10;;
10711;SDS011;5407;51.234;6.804;2022-10-23T01:54:08;2.78;;;1.98;;
10711;SDS011;5407;51.234;6.804;2022-10-23T01:56:38;4.50;;;2.00;;
10711;SDS011;5407;51.234;6.804;2022-10-23T01:59:11;5.18;;;2.40;;
10711;SDS011;5407;51.234;6.804;2022-10-23T02:01:42;3.95;;;2.00;;
10711;SDS011;5407;51.234;6.804;2022-10-23T02:04:12;5.30;;;2.08;;
10711;SDS011;5407;51.234;6.804;2022-10-23T02:06:43;16.67;;;1.92;;
10711;SDS011;5407;51.234;6.804;2022-10-23T02:09:10;7.75;;;1.90;;
10711;SDS011;5407;51.234;6.804;2022-10-23T02:11:38;4.75;;;1.88;;
10711;SDS011;5407;51.234;6.804;2022-10-23T02:14:15;4.10;;;1.88;;
10711;SDS011;5407;51.234;6.804;2022-10-23T02:16:50;4.00;;;1.83;;
10711;SDS011;5407;51.234;6.804;2022-10-23T02:19:20;2.47;;;1.70;;
10711;SDS011;5407;51.234;6.804;2022-10-23T02:22:05;3.72;;;2.10;;
10711;SDS011;5407;51.234;6.804;2022-10-23T02:24:37;6.20;;;1.83;;
10711;SDS011;5407;51.234;6.804;2022-10-23T02:27:09;3.42;;;1.85;;
10711;SDS011;5407;51.234;6.804;2022-10-23T02:29:42;6.13;;;2.00;;
10711;SDS011;5407;51.234;6.804;2022-10-23T02:32:13;4.28;;;1.98;;
10711;SDS011;5407;51.234;6.804;2022-10-23T02:34:41;3.95;;;2.13;;
10711;SDS011;5407;51.234;6.804;2022-10-23T02:37:09;3.33;;;1.92;;
10711;SDS011;5407;51.234;6.804;2022-10-23T02:39:36;6.22;;;2.03;;
10711;SDS011;5407;51.234;6.804;2022-10-23T02:42:04;3.95;;;1.73;;
10711;SDS011;5407;51.234;6.804;2022-10-23T02:44:44;2.20;;;1.63;;
10711;SDS011;5407;51.234;6.804;2022-10-23T02:47:26;4.43;;;2.00;;
10711;SDS011;5407;51.234;6.804;2022-10-23T02:50:03;8.17;;;1.90;;
10711;SDS011;5407;51.234;6.804;2022-10-23T02:52:40;11.32;;;1.80;;
10711;SDS011;5407;51.234;6.804;2022-10-23T02:55:21;2.33;;;1.73;;
10711;SDS011;5407;51.234;6.804;2022-10-23T02:57:59;5.78;;;1.80;;
10711;SDS011;5407;51.234;6.804;2022-10-23T03:00:34;4.43;;;1.85;;
10711;SDS011;5407;51.234;6.804;2022-10-23T03:03:05;2.88;;;1.85;;
10711;SDS011;5407;51.234;6.804;2022-10-23T03:05:37;2.55;;;1.52;;
10711;SDS011;5407;51.234;6.804;2022-10-23T03:08:07;5.45;;;1.83;;
10711;SDS011;5407;51.234;6.804;2022-10-23T03:10:35;3.85;;;1.70;;
10711;SDS011;5407;51.234;6.804;2022-10-23T03:13:04;4.45;;;1.60;;
10711;SDS011;5407;51.234;6.804;2022-10-23T03:15:40;3.95;;;1.85;;
10711;SDS011;5407;51.234;6.804;2022-10-23T03:18:10;4.03;;;1.70;;
10711;SDS011;5407;51.234;6.804;2022-10-23T03:20:39;4.60;;;1.90;;
10711;SDS011;5407;51.234;6.804;2022-10-23T03:23:06;4.60;;;1.70;;
10711;SDS011;5407;51.234;6.804;2022-10-23T03:25:36;3.83;;;1.60;;
10711;SDS011;5407;51.234;6.804;2022-10-23T03:28:03;3.83;;;2.08;;
10711;SDS011;5407;51.234;6.804;2022-10-23T03:30:33;4.90;;;1.80;;
10711;SDS011;5407;51.234;6.804;2022-10-23T03:33:01;3.83;;;1.80;;
10711;SDS011;5407;51.234;6.804;2022-10-23T03:35:28;3.22;;;1.75;;
10711;SDS011;5407;51.234;6.804;2022-10-23T03:37:55;3.55;;;1.80;;
10711;SDS011;5407;51.234;6.804;2022-10-23T03:40:24;3.60;;;1.50;;
10711;SDS011;5407;51.234;6.804;2022-10-23T03:42:51;4.43;;;1.58;;
10711;SDS011;5407;51.234;6.804;2022-10-23T03:45:18;8.40;;;1.83;;
10711;SDS011;5407;51.234;6.804;2022-10-23T03:47:46;2.47;;;1.70;;
10711;SDS011;5407;51.234;6.804;2022-10-23T03:50:16;2.83;;;1.58;;
10711;SDS011;5407;51.234;6.804;2022-10-23T03:52:44;3.30;;;1.60;;
10711;SDS011;5407;51.234;6.804;2022-10-23T03:55:11;3.65;;;1.65;;
10711;SDS011;5407;51.234;6.804;2022-10-23T03:57:38;6.07;;;1.70;;
10711;SDS011;5407;51.234;6.804;2022-10-23T04:00:05;5.50;;;1.98;;
10711;SDS011;5407;51.234;6.804;2022-10-23T04:02:41;2.67;;;1.77;;
10711;SDS011;5407;51.234;6.804;2022-10-23T04:05:08;3.28;;;1.45;;
10711;SDS011;5407;51.234;6.804;2022-10-23T04:07:39;4.95;;;1.77;;
10711;SDS011;5407;51.234;6.804;2022-10-23T04:10:06;2.42;;;1.60;;
10711;SDS011;5407;51.234;6.804;2022-10-23T04:12:33;4.10;;;1.77;;
10711;SDS011;5407;51.234;6.804;2022-10-23T04:15:00;3.05;;;1.60;;
10711;SDS011;5407;51.234;6.804;2022-10-23T04:17:27;4.47;;;1.75;;
10711;SDS011;5407;51.234;6.804;2022-10-23T04:19:54;4.60;;;1.83;;
10711;SDS011;5407;51.234;6.804;2022-10-23T04:22:22;2.88;;;1.60;;
10711;SDS011;5407;51.234;6.804;2022-10-23T04:24:50;6.85;;;1.42;;
10711;SDS011;5407;51.234;6.804;2022-10-23T04:27:17;3.92;;;1.60;;
10711;SDS011;5407;51.234;6.804;2022-10-23T04:29:44;3.03;;;1.80;;
10711;SDS011;5407;51.234;6.804;2022-10-23T04:32:11;4.55;;;1.58;;
10711;SDS011;5407;51.234;6.804;2022-10-23T04:34:38;3.60;;;1.90;;
10711;SDS011;5407;51.234;6.804;2022-10-23T04:37:05;2.88;;;1.52;;
10711;SDS011;5407;51.234;6.804;2022-10-23T04:39:32;2.78;;;1.77;;
10711;SDS011;5407;51.234;6.804;2022-10-23T04:42:00;4.18;;;1.70;;
10711;SDS011;5407;51.234;6.804;2022-10-23T04:44:27;3.25;;;1.70;;
10711;SDS011;5407;51.234;6.804;2022-10-23T04:46:54;2.83;;;2.00;;
10711;SDS011;5407;51.234;6.804;2022-10-23T04:49:22;4.97;;;1.75;;
10711;SDS011;5407;51.234;6.804;2022-10-23T04:52:09;3.30;;;1.80;;
10711;SDS011;5407;51.234;6.804;2022-10-23T04:54:35;5.00;;;2.05;;
10711;SDS011;5407;51.234;6.804;2022-10-23T04:57:23;4.47;;;1.90;;
10711;SDS011;5407;51.234;6.804;2022-10-23T05:00:06;3.03;;;2.03;;
10711;SDS011;5407;51.234;6.804;2022-10-23T05:02:42;4.82;;;1.95;;
10711;SDS011;5407;51.234;6.804;2022-10-23T05:05:12;4.55;;;1.83;;
10711;SDS011;5407;51.234;6.804;2022-10-23T05:08:02;3.80;;;1.70;;
10711;SDS011;5407;51.234;6.804;2022-10-23T05:10:58;2.72;;;1.60;;
10711;SDS011;5407;51.234;6.804;2022-10-23T05:13:27;1.95;;;1.70;;
10711;SDS011;5407;51.234;6.804;2022-10-23T05:15:56;4.38;;;1.77;;
10711;SDS011;5407;51.234;6.804;2022-10-23T05:18:25;2.38;;;1.45;;
10711;SDS011;5407;51.234;6.804;2022-10-23T05:20:55;4.07;;;1.85;;
10711;SDS011;5407;51.234;6.804;2022-10-23T05:23:26;3.42;;;1.90;;
10711;SDS011;5407;51.234;6.804;2022-10-23T05:26:00;4.50;;;1.60;;
10711;SDS011;5407;51.234;6.804;2022-10-23T05:28:30;2.85;;;1.70;;
10711;SDS011;5407;51.234;6.804;2022-10-23T05:30:58;3.90;;;1.90;;
10711;SDS011;5407;51.234;6.804;2022-10-23T05:33:28;3.13;;;1.77;;
10711;SDS011;5407;51.234;6.804;2022-10-23T05:35:55;4.45;;;1.95;;
10711;SDS011;5407;51.234;6.804;2022-10-23T05:38:24;4.40;;;2.03;;
10711;SDS011;5407;51.234;6.804;2022-10-23T05:40:53;3.40;;;1.80;;
10711;SDS011;5407;51.234;6.804;2022-10-23T05:43:21;5.00;;;2.10;;
10711;SDS011;5407;51.234;6.804;2022-10-23T05:46:12;4.32;;;1.80;;
10711;SDS011;5407;51.234;6.804;2022-10-23T05:49:02;2.72;;;1.65;;
10711;SDS011;5407;51.234;6.804;2022-10-23T05:51:51;3.80;;;1.80;;
10711;SDS011;5407;51.234;6.804;2022-10-23T05:54:22;5.88;;;1.70;;
10711;SDS011;5407;51.234;6.804;2022-10-23T05:56:58;3.92;;;1.80;;
10711;SDS011;5407;51.234;6.804;2022-10-23T05:59:40;5.57;;;1.67;;
10711;SDS011;5407;51.234;6.804;2022-10-23T06:02:38;5.95;;;1.80;;
10711;SDS011;5407;51.234;6.804;2022-10-23T06:05:13;3.08;;;1.60;;
10711;SDS011;5407;51.234;6.804;2022-10-23T06:07:56;2.67;;;1.70;;
10711;SDS011;5407;51.234;6.804;2022-10-23T06:10:23;3.75;;;1.60;;
10711;SDS011;5407;51.234;6.804;2022-10-23T06:12:51;3.88;;;1.60;;
10711;SDS011;5407;51.234;6.804;2022-10-23T06:15:18;2.30;;;1.50;;
10711;SDS011;5407;51.234;6.804;2022-10-23T06:18:05;3.05;;;1.77;;
10711;SDS011;5407;51.234;6.804;2022-10-23T06:20:37;2.90;;;1.60;;
10711;SDS011;5407;51.234;6.804;2022-10-23T06:23:09;3.47;;;1.52;;
10711;SDS011;5407;51.234;6.804;2022-10-23T06:25:55;4.32;;;1.45;;
10711;SDS011;5407;51.234;6.804;2022-10-23T06:28:45;6.25;;;1.60;;
10711;SDS011;5407;51.234;6.804;2022-10-23T06:31:12;4.43;;;1.40;;
10711;SDS011;5407;51.234;6.804;2022-10-23T06:33:42;1.92;;;1.42;;
10711;SDS011;5407;51.234;6.804;2022-10-23T06:36:09;5.57;;;1.88;;
10711;SDS011;5407;51.234;6.804;2022-10-23T06:38:39;2.38;;;1.63;;
10711;SDS011;5407;51.234;6.804;2022-10-23T06:41:10;2.60;;;1.40;;
10711;SDS011;5407;51.234;6.804;2022-10-23T06:43:39;2.22;;;1.80;;
10711;SDS011;5407;51.234;6.804;2022-10-23T06:46:22;2.80;;;1.58;;
10711;SDS011;5407;51.234;6.804;2022-10-23T06:49:15;3.20;;;1.77;;
10711;SDS011;5407;51.234;6.804;2022-10-23T06:51:45;9.05;;;1.63;;
10711;SDS011;5407;51.234;6.804;2022-10-23T06:54:13;3.95;;;1.67;;
10711;SDS011;5407;51.234;6.804;2022-10-23T06:57:06;4.55;;;1.80;;
10711;SDS011;5407;51.234;6.804;2022-10-23T06:59:41;2.53;;;1.50;;
10711;SDS011;5407;51.234;6.804;2022-10-23T07:02:09;2.40;;;1.67;;
10711;SDS011;5407;51.234;6.804;2022-10-23T07:04:38;2.72;;;1.55;;
10711;SDS011;5407;51.234;6.804;2022-10-23T07:07:11;2.22;;;1.52;;
10711;SDS011;5407;51.234;6.804;2022-10-23T07:09:43;4.00;;;2.15;;
10711;SDS011;5407;51.234;6.804;2022-10-23T07:12:23;2.33;;;1.50;;
10711;SDS011;5407;51.234;6.804;2022-10-23T07:15:04;4.20;;;1.65;;
10711;SDS011;5407;51.234;6.804;2022-10-23T07:17:32;2.55;;;1.70;;
10711;SDS011;5407;51.234;6.804;2022-10-23T07:20:00;2.38;;;1.58;;
10711;SDS011;5407;51.234;6.804;2022-10-23T07:22:28;2.47;;;1.58;;
10711;SDS011;5407;51.234;6.804;2022-10-23T07:25:08;3.63;;;1.50;;
10711;SDS011;5407;51.234;6.804;2022-10-23T07:27:37;2.88;;;1.80;;
10711;SDS011;5407;51.234;6.804;2022-10-23T07:30:06;5.50;;;1.85;;
10711;SDS011;5407;51.234;6.804;2022-10-23T07:32:42;3.25;;;1.80;;
10711;SDS011;5407;51.234;6.804;2022-10-23T07:35:11;2.72;;;1.50;;
10711;SDS011;5407;51.234;6.804;2022-10-23T07:37:47;1.83;;;1.55;;
10711;SDS011;5407;51.234;6.804;2022-10-23T07:40:14;5.38;;;2.00;;
10711;SDS011;5407;51.234;6.804;2022-10-23T07:42:43;2.15;;;1.52;;
10711;SDS011;5407;51.234;6.804;2022-10-23T07:45:13;2.20;;;1.52;;
10711;SDS011;5407;51.234;6.804;2022-10-23T07:47:43;3.17;;;1.65;;
10711;SDS011;5407;51.234;6.804;2022-10-23T07:50:17;3.03;;;1.70;;
10711;SDS011;5407;51.234;6.804;2022-10-23T07:52:44;3.38;;;1.65;;
10711;SDS011;5407;51.234;6.804;2022-10-23T07:55:15;2.95;;;1.50;;
10711;SDS011;5407;51.234;6.804;2022-10-23T07:58:04;3.85;;;1.75;;
10711;SDS011;5407;51.234;6.804;2022-10-23T08:00:38;4.63;;;1.73;;
10711;SDS011;5407;51.234;6.804;2022-10-23T08:03:16;4.15;;;1.48;;
10711;SDS011;5407;51.234;6.804;2022-10-23T08:05:46;2.42;;;1.50;;
10711;SDS011;5407;51.234;6.804;2022-10-23T08:08:14;2.63;;;1.55;;
10711;SDS011;5407;51.234;6.804;2022-10-23T08:10:44;2.08;;;1.40;;
10711;SDS011;5407;51.234;6.804;2022-10-23T08:13:17;3.03;;;1.60;;
10711;SDS011;5407;51.234;6.804;2022-10-23T08:15:54;7.15;;;1.60;;
10711;SDS011;5407;51.234;6.804;2022-10-23T08:18:41;2.35;;;1.50;;
10711;SDS011;5407;51.234;6.804;2022-10-23T08:21:11;4.47;;;1.48;;
10711;SDS011;5407;51.234;6.804;2022-10-23T08:23:38;2.45;;;1.38;;
10711;SDS011;5407;51.234;6.804;2022-10-23T08:26:05;1.73;;;1.40;;
10711;SDS011;5407;51.234;6.804;2022-10-23T08:28:33;3.38;;;1.70;;
10711;SDS011;5407;51.234;6.804;2022-10-23T08:31:05;7.78;;;2.13;;
10711;SDS011;5407;51.234;6.804;2022-10-23T08:33:33;8.52;;;3.00;;
10711;SDS011;5407;51.234;6.804;2022-10-23T08:36:00;10.67;;;3.00;;
10711;SDS011;5407;51.234;6.804;2022-10-23T08:38:33;8.75;;;2.53;;
10711;SDS011;5407;51.234;6.804;2022-10-23T08:41:01;8.10;;;3.10;;
10711;SDS011;5407;51.234;6.804;2022-10-23T08:43:47;9.25;;;3.00;;
10711;SDS011;5407;51.234;6.804;2022-10-23T08:46:31;7.10;;;3.10;;
10711;SDS011;5407;51.234;6.804;2022-10-23T08:49:23;6.28;;;2.50;;
10711;SDS011;5407;51.234;6.804;2022-10-23T08:52:06;6.28;;;2.63;;
10711;SDS011;5407;51.234;6.804;2022-10-23T08:54:44;7.80;;;2.70;;
10711;SDS011;5407;51.234;6.804;2022-10-23T08:57:18;7.57;;;2.25;;
10711;SDS011;5407;51.234;6.804;2022-10-23T08:59:49;7.03;;;2.90;;
10711;SDS011;5407;51.234;6.804;2022-10-23T09:02:23;6.07;;;2.53;;
10711;SDS011;5407;51.234;6.804;2022-10-23T09:04:53;10.30;;;2.50;;
10711;SDS011;5407;51.234;6.804;2022-10-23T09:07:26;4.82;;;2.42;;
10711;SDS011;5407;51.234;6.804;2022-10-23T09:10:12;5.50;;;2.30;;
10711;SDS011;5407;51.234;6.804;2022-10-23T09:12:56;6.47;;;2.20;;
10711;SDS011;5407;51.234;6.804;2022-10-23T09:15:26;4.10;;;2.20;;
10711;SDS011;5407;51.234;6.804;2022-10-23T09:17:57;4.22;;;2.20;;
10711;SDS011;5407;51.234;6.804;2022-10-23T09:20:30;2.40;;;1.80;;
10711;SDS011;5407;51.234;6.804;2022-10-23T09:23:00;4.35;;;2.08;;
10711;SDS011;5407;51.234;6.804;2022-10-23T09:25:35;3.25;;;2.10;;
10711;SDS011;5407;51.234;6.804;2022-10-23T09:28:04;3.13;;;1.90;;
10711;SDS011;5407;51.234;6.804;2022-10-23T09:30:32;4.53;;;1.85;;
10711;SDS011;5407;51.234;6.804;2022-10-23T09:33:00;4.78;;;1.83;;
10711;SDS011;5407;51.234;6.804;2022-10-23T09:35:50;3.45;;;1.75;;
10711;SDS011;5407;51.234;6.804;2022-10-23T09:38:28;3.05;;;1.88;;
10711;SDS011;5407;51.234;6.804;2022-10-23T09:41:04;4.65;;;1.98;;
10711;SDS011;5407;51.234;6.804;2022-10-23T09:43:36;4.82;;;1.92;;
10711;SDS011;5407;51.234;6.804;2022-10-23T09:46:05;3.22;;;1.63;;
10711;SDS011;5407;51.234;6.804;2022-10-23T09:48:34;3.70;;;1.50;;
10711;SDS011;5407;51.234;6.804;2022-10-23T09:51:02;3.88;;;1.80;;
10711;SDS011;5407;51.234;6.804;2022-10-23T09:53:32;2.88;;;1.63;;
10711;SDS011;5407;51.234;6.804;2022-10-23T09:56:02;2.17;;;1.60;;
10711;SDS011;5407;51.234;6.804;2022-10-23T09:58:33;2.38;;;1.80;;
10711;SDS011;5407;51.234;6.804;2022-10-23T10:01:02;4.50;;;1.88;;
10711;SDS011;5407;51.234;6.804;2022-10-23T10:03:47;2.10;;;1.40;;
10711;SDS011;5407;51.234;6.804;2022-10-23T10:06:19;4.45;;;1.63;;
10711;SDS011;5407;51.234;6.804;2022-10-23T10:08:49;2.92;;;1.50;;
10711;SDS011;5407;51.234;6.804;2022-10-23T10:11:21;3.03;;;1.50;;
10711;SDS011;5407;51.234;6.804;2022-10-23T10:13:56;3.50;;;1.60;;
10711;SDS011;5407;51.234;6.804;2022-10-23T10:16:41;3.13;;;1.83;;
10711;SDS011;5407;51.234;6.804;2022-10-23T10:19:25;3.83;;;2.00;;
10711;SDS011;5407;51.234;6.804;2022-10-23T10:22:02;1.95;;;1.50;;
10711;SDS011;5407;51.234;6.804;2022-10-23T10:24:39;2.65;;;1.80;;
10711;SDS011;5407;51.234;6.804;2022-10-23T10:27:27;2.97;;;1.70;;
10711;SDS011;5407;51.234;6.804;2022-10-23T10:30:07;2.92;;;1.35;;
10711;SDS011;5407;51.234;6.804;2022-10-23T10:32:39;4.95;;;1.60;;
10711;SDS011;5407;51.234;6.804;2022-10-23T10:35:16;4.65;;;1.50;;
10711;SDS011;5407;51.234;6.804;2022-10-23T10:37:53;3.63;;;1.35;;
10711;SDS011;5407;51.234;6.804;2022-10-23T10:40:31;3.38;;;1.85;;
10711;SDS011;5407;51.234;6.804;2022-10-23T10:43:08;2.15;;;1.50;;
10711;SDS011;5407;51.234;6.804;2022-10-23T10:45:47;3.15;;;1.58;;
10711;SDS011;5407;51.234;6.804;2022-10-23T10:48:22;3.28;;;1.50;;
10711;SDS011;5407;51.234;6.804;2022-10-23T10:51:28;3.33;;;1.73;;
10711;SDS011;5407;51.234;6.804;2022-10-23T10:54:04;4.75;;;1.40;;
10711;SDS011;5407;51.234;6.804;2022-10-23T10:56:40;2.88;;;1.10;;
10711;SDS011;5407;51.234;6.804;2022-10-23T10:59:13;6.65;;;1.40;;
10711;SDS011;5407;51.234;6.804;2022-10-23T11:01:44;4.47;;;1.38;;
10711;SDS011;5407;51.234;6.804;2022-10-23T11:04:21;2.92;;;1.92;;
10711;SDS011;5407;51.234;6.804;2022-10-23T11:06:57;2.80;;;2.40;;
10711;SDS011;5407;51.234;6.804;2022-10-23T11:09:26;3.10;;;1.77;;
10711;SDS011;5407;51.234;6.804;2022-10-23T11:11:56;3.03;;;1.40;;
10711;SDS011;5407;51.234;6.804;2022-10-23T11:14:25;2.30;;;1.48;;
10711;SDS011;5407;51.234;6.804;2022-10-23T11:16:56;3.10;;;1.42;;
10711;SDS011;5407;51.234;6.804;2022-10-23T11:19:29;2.35;;;1.70;;
10711;SDS011;5407;51.234;6.804;2022-10-23T11:22:01;1.50;;;1.33;;
10711;SDS011;5407;51.234;6.804;2022-10-23T11:27:50;2.15;;;1.33;;
10711;SDS011;5407;51.234;6.804;2022-10-23T11:30:30;2.58;;;1.23;;
10711;SDS011;5407;51.234;6.804;2022-10-23T11:36:10;4.85;;;1.90;;
10711;SDS011;5407;51.234;6.804;2022-10-23T11:38:42;2.67;;;1.38;;
10711;SDS011;5407;51.234;6.804;2022-10-23T11:41:17;1.50;;;1.20;;
10711;SDS011;5407;51.234;6.804;2022-10-23T11:43:47;3.60;;;1.58;;
10711;SDS011;5407;51.234;6.804;2022-10-23T11:46:29;2.92;;;1.50;;
10711;SDS011;5407;51.234;6.804;2022-10-23T11:48:57;1.73;;;1.30;;
10711;SDS011;5407;51.234;6.804;2022-10-23T11:51:27;3.10;;;1.30;;
10711;SDS011;5407;51.234;6.804;2022-10-23T11:56:55;1.95;;;1.30;;
10711;SDS011;5407;51.234;6.804;2022-10-23T11:59:35;3.17;;;1.45;;
10711;SDS011;5407;51.234;6.804;2022-10-23T12:02:21;2.88;;;1.30;;
10711;SDS011;5407;51.234;6.804;2022-10-23T12:04:56;1.33;;;1.23;;
10711;SDS011;5407;51.234;6.804;2022-10-23T12:07:26;6.50;;;1.50;;
10711;SDS011;5407;51.234;6.804;2022-10-23T12:09:56;2.05;;;1.30;;
10711;SDS011;5407;51.234;6.804;2022-10-23T12:12:26;1.90;;;1.42;;
10711;SDS011;5407;51.234;6.804;2022-10-23T12:15:15;6.82;;;1.60;;
10711;SDS011;5407;51.234;6.804;2022-10-23T12:17:47;1.98;;;1.20;;
10711;SDS011;5407;51.234;6.804;2022-10-23T12:20:24;1.40;;;1.20;;
10711;SDS011;5407;51.234;6.804;2022-10-23T12:23:05;1.60;;;1.40;;
10711;SDS011;5407;51.234;6.804;2022-10-23T12:25:49;1.83;;;1.38;;
10711;SDS011;5407;51.234;6.804;2022-10-23T12:28:29;2.05;;;1.45;;
10711;SDS011;5407;51.234;6.804;2022-10-23T12:31:06;2.60;;;1.40;;
10711;SDS011;5407;51.234;6.804;2022-10-23T12:33:49;3.42;;;1.40;;
10711;SDS011;5407;51.234;6.804;2022-10-23T12:36:25;3.70;;;1.50;;
10711;SDS011;5407;51.234;6.804;2022-10-23T12:41:51;1.85;;;1.35;;
10711;SDS011;5407;51.234;6.804;2022-10-23T12:44:18;1.85;;;1.27;;
10711;SDS011;5407;51.234;6.804;2022-10-23T12:46:45;2.85;;;1.33;;
10711;SDS011;5407;51.234;6.804;2022-10-23T12:49:16;1.23;;;1.13;;
10711;SDS011;5407;51.234;6.804;2022-10-23T12:51:45;3.20;;;1.65;;
10711;SDS011;5407;51.234;6.804;2022-10-23T12:54:20;6.07;;;1.55;;
10711;SDS011;5407;51.234;6.804;2022-10-23T12:56:47;1.38;;;1.20;;
10711;SDS011;5407;51.234;6.804;2022-10-23T12:59:15;3.80;;;1.40;;
10711;SDS011;5407;51.234;6.804;2022-10-23T13:01:45;2.55;;;1.50;;
10711;SDS011;5407;51.234;6.804;2022-10-23T13:04:12;7.72;;;1.48;;
10711;SDS011;5407;51.234;6.804;2022-10-23T13:06:47;7.20;;;1.45;;
10711;SDS011;5407;51.234;6.804;2022-10-23T13:09:17;4.03;;;1.45;;
10711;SDS011;5407;51.234;6.804;2022-10-23T13:12:07;4.50;;;1.90;;
10711;SDS011;5407;51.234;6.804;2022-10-23T13:14:53;5.07;;;1.70;;
10711;SDS011;5407;51.234;6.804;2022-10-23T13:17:31;5.35;;;2.60;;
10711;SDS011;5407;51.234;6.804;2022-10-23T13:20:08;4.35;;;1.80;;
10711;SDS011;5407;51.234;6.804;2022-10-23T13:22:52;3.90;;;1.50;;
10711;SDS011;5407;51.234;6.804;2022-10-23T13:25:24;8.48;;;1.75;;
10711;SDS011;5407;51.234;6.804;2022-10-23T13:28:01;4.05;;;1.33;;
10711;SDS011;5407;51.234;6.804;2022-10-23T13:30:38;2.45;;;1.30;;
10711;SDS011;5407;51.234;6.804;2022-10-23T13:33:14;6.28;;;1.38;;
10711;SDS011;5407;51.234;6.804;2022-10-23T13:35:55;3.38;;;1.77;;
10711;SDS011;5407;51.234;6.804;2022-10-23T13:38:29;1.73;;;1.58;;
10711;SDS011;5407;51.234;6.804;2022-10-23T13:40:58;4.70;;;1.48;;
10711;SDS011;5407;51.234;6.804;2022-10-23T13:43:25;4.10;;;1.60;;
10711;SDS011;5407;51.234;6.804;2022-10-23T13:45:55;4.28;;;1.30;;
10711;SDS011;5407;51.234;6.804;2022-10-23T13:48:22;4.53;;;1.77;;
10711;SDS011;5407;51.234;6.804;2022-10-23T13:50:49;2.75;;;1.52;;
10711;SDS011;5407;51.234;6.804;2022-10-23T13:53:18;3.72;;;1.50;;
10711;SDS011;5407;51.234;6.804;2022-10-23T13:55:45;1.90;;;1.60;;
10711;SDS011;5407;51.234;6.804;2022-10-23T13:58:15;2.72;;;1.60;;
10711;SDS011;5407;51.234;6.804;2022-10-23T14:00:42;5.25;;;1.77;;
10711;SDS011;5407;51.234;6.804;2022-10-23T14:03:12;3.35;;;1.70;;
10711;SDS011;5407;51.234;6.804;2022-10-23T14:05:39;7.07;;;2.10;;
10711;SDS011;5407;51.234;6.804;2022-10-23T14:08:06;3.65;;;1.50;;
10711;SDS011;5407;51.234;6.804;2022-10-23T14:10:35;2.90;;;1.52;;
10711;SDS011;5407;51.234;6.804;2022-10-23T14:13:01;4.20;;;1.45;;
10711;SDS011;5407;51.234;6.804;2022-10-23T14:15:29;3.33;;;1.50;;
10711;SDS011;5407;51.234;6.804;2022-10-23T14:17:55;2.25;;;1.40;;
10711;SDS011;5407;51.234;6.804;2022-10-23T14:20:22;4.38;;;1.80;;
10711;SDS011;5407;51.234;6.804;2022-10-23T14:22:49;5.40;;;1.80;;
10711;SDS011;5407;51.234;6.804;2022-10-23T14:25:16;3.00;;;1.55;;
10711;SDS011;5407;51.234;6.804;2022-10-23T14:27:44;2.95;;;1.50;;
10711;SDS011;5407;51.234;6.804;2022-10-23T14:30:12;5.00;;;1.67;;
10711;SDS011;5407;51.234;6.804;2022-10-23T14:32:39;1.85;;;1.50;;
10711;SDS011;5407;51.234;6.804;2022-10-23T14:35:06;4.05;;;1.63;;
10711;SDS011;5407;51.234;6.804;2022-10-23T14:37:33;2.60;;;1.40;;
10711;SDS011;5407;51.234;6.804;2022-10-23T14:40:00;3.67;;;1.42;;
10711;SDS011;5407;51.234;6.804;2022-10-23T14:42:27;4.68;;;1.77;;
10711;SDS011;5407;51.234;6.804;2022-10-23T14:44:59;2.10;;;1.58;;
10711;SDS011;5407;51.234;6.804;2022-10-23T14:47:27;2.78;;;1.70;;
10711;SDS011;5407;51.234;6.804;2022-10-23T14:49:54;2.35;;;1.52;;
10711;SDS011;5407;51.234;6.804;2022-10-23T14:52:21;3.80;;;1.60;;
10711;SDS011;5407;51.234;6.804;2022-10-23T14:54:49;2.53;;;1.80;;
10711;SDS011;5407;51.234;6.804;2022-10-23T14:57:17;2.03;;;1.40;;
10711;SDS011;5407;51.234;6.804;2022-10-23T14:59:45;5.07;;;1.77;;
10711;SDS011;5407;51.234;6.804;2022-10-23T15:02:14;4.50;;;1.80;;
10711;SDS011;5407;51.234;6.804;2022-10-23T15:04:42;5.75;;;1.60;;
10711;SDS011;5407;51.234;6.804;2022-10-23T15:07:09;3.90;;;1.45;;
10711;SDS011;5407;51.234;6.804;2022-10-23T15:09:36;3.67;;;1.75;;
10711;SDS011;5407;51.234;6.804;2022-10-23T15:12:04;7.07;;;1.83;;
10711;SDS011;5407;51.234;6.804;2022-10-23T15:14:31;3.85;;;1.85;;
10711;SDS011;5407;51.234;6.804;2022-10-23T15:16:58;9.95;;;2.10;;
10711;SDS011;5407;51.234;6.804;2022-10-23T15:19:27;5.47;;;1.80;;
10711;SDS011;5407;51.234;6.804;2022-10-23T15:21:53;6.10;;;1.73;;
10711;SDS011;5407;51.234;6.804;2022-10-23T15:24:20;4.43;;;1.75;;
10711;SDS011;5407;51.234;6.804;2022-10-23T15:26:47;2.67;;;1.90;;
10711;SDS011;5407;51.234;6.804;2022-10-23T15:29:16;7.20;;;1.83;;
10711;SDS011;5407;51.234;6.804;2022-10-23T15:31:52;6.78;;;1.70;;
10711;SDS011;5407;51.234;6.804;2022-10-23T15:34:21;3.80;;;1.67;;
10711;SDS011;5407;51.234;6.804;2022-10-23T15:36:51;4.55;;;1.60;;
10711;SDS011;5407;51.234;6.804;2022-10-23T15:39:20;3.08;;;1.80;;
10711;SDS011;5407;51.234;6.804;2022-10-23T15:41:49;4.07;;;1.70;;
10711;SDS011;5407;51.234;6.804;2022-10-23T15:44:18;5.05;;;2.20;;
10711;SDS011;5407;51.234;6.804;2022-10-23T15:46:46;5.10;;;1.60;;